23:29
Airports
History
Links
Donate
Help keep this website running!
PayPal
Bitcoin
This page is community maintained. The information is intended for PC simulator navigation or reference.
Always use approved charts for navigation.
RJA3
Ryugasaki
Ryugasaki (RJA3)
Kawachi-machi, Ibaraki Prefecture, Japan (300)
(C)
Lat/Lng:35° 54' 11.02" N / 140° 14' 41" E
35.903061 / 140.244721
Elevation:8'ft / 2mMSL
ID / ICAO:RJA3
Runways:1
Longest:26-08
Asphalt 805m / 2,640ft
Controlled:Yes
Nearby Weather22:30 GMT 2017-10-20
Nearby weather at RJAK, Kasumigaura AB located 9.3 nautical miles from RJA3
Altimeter: 30.03
Visibility: 1.2 statute miles
Wind: 8 knots (from 030°)
Temp: 17°c / 63°f
Humidity: 100.0%

METAR: RJAK 202230Z 03008KT 2000 -RADZ BR BKN003 BKN007 17/17 Q1017 RMK 6ST003 7ST007 A3004 FCST AMD 2207 TEMPO 0003 5000

(Powered by phpweather)
Nearby VORs <50NM
Nearby NDBs
Runway 26 / 08
Dimensions:804.7 x 35.1m 2640' x 115'ft
Surface:Asphalt
Runway 26 [A]Runway 08 [B]
Heading:252°TH 072°TH
Lat:
Lng:
35° 54' 14.92"N
140° 14' 56.25"E
35° 54' 7.12"N
140° 14' 25.74"E
User Notes and Comments
35° 54' 11.02" N / 140° 14' 41" E
Distance To
Airport ID:
Nearby Airports
(C) Ohotone 3.3 NM
RJA2 S 180°
(C) Ami 8.2 NM
RJA1 N
(C) Kasumigaura AB 9.3 NM
RJAK ( WX ) NNW 342°
(C) NARITA INTL 11.8 NM
RJAA ( WX ) SE 139°
(C) SHIMOFUSA 14.9 NM
RJTL ( WX ) WSW 241°
(C) HYAKURI 21.4 NM
RJAH ( WX ) NNE 26°
(C) Tokyo Haneda Intl 35.4 NM
RJTT ( WX ) SW 225°
VFR Chart
Flight Planning at SkyVector.com